sensor_id;sensor_type;location;lat;lon;timestamp;P1;durP1;ratioP1;P2;durP2;ratioP2
51838;SDS011;37886;53.174;6.368;2022-08-19T00:01:52;12.63;;;10.95;;
51838;SDS011;37886;53.174;6.368;2022-08-19T00:04:21;17.13;;;10.70;;
51838;SDS011;37886;53.174;6.368;2022-08-19T00:06:50;21.17;;;12.67;;
51838;SDS011;37886;53.174;6.368;2022-08-19T00:09:17;15.70;;;10.32;;
51838;SDS011;37886;53.174;6.368;2022-08-19T00:11:44;16.35;;;11.18;;
51838;SDS011;37886;53.174;6.368;2022-08-19T00:14:11;16.65;;;12.63;;
51838;SDS011;37886;53.174;6.368;2022-08-19T00:16:40;17.02;;;10.63;;
51838;SDS011;37886;53.174;6.368;2022-08-19T00:19:06;19.65;;;12.20;;
51838;SDS011;37886;53.174;6.368;2022-08-19T00:21:33;14.25;;;11.40;;
51838;SDS011;37886;53.174;6.368;2022-08-19T00:24:03;16.67;;;11.77;;
51838;SDS011;37886;53.174;6.368;2022-08-19T00:26:29;18.42;;;11.95;;
51838;SDS011;37886;53.174;6.368;2022-08-19T00:28:58;15.38;;;11.20;;
51838;SDS011;37886;53.174;6.368;2022-08-19T00:31:25;18.45;;;12.90;;
51838;SDS011;37886;53.174;6.368;2022-08-19T00:33:53;18.65;;;12.82;;
51838;SDS011;37886;53.174;6.368;2022-08-19T00:36:19;19.45;;;11.52;;
51838;SDS011;37886;53.174;6.368;2022-08-19T00:38:45;14.60;;;11.13;;
51838;SDS011;37886;53.174;6.368;2022-08-19T00:41:15;15.50;;;12.75;;
51838;SDS011;37886;53.174;6.368;2022-08-19T00:43:55;15.75;;;12.38;;
51838;SDS011;37886;53.174;6.368;2022-08-19T00:46:31;19.40;;;12.95;;
51838;SDS011;37886;53.174;6.368;2022-08-19T00:48:58;16.08;;;12.52;;
51838;SDS011;37886;53.174;6.368;2022-08-19T00:51:26;18.48;;;12.02;;
51838;SDS011;37886;53.174;6.368;2022-08-19T00:53:54;14.15;;;10.88;;
51838;SDS011;37886;53.174;6.368;2022-08-19T00:56:22;19.85;;;12.27;;
51838;SDS011;37886;53.174;6.368;2022-08-19T00:58:48;17.20;;;12.35;;
51838;SDS011;37886;53.174;6.368;2022-08-19T01:01:14;17.35;;;12.27;;
51838;SDS011;37886;53.174;6.368;2022-08-19T01:03:40;18.17;;;12.30;;
51838;SDS011;37886;53.174;6.368;2022-08-19T01:06:06;18.20;;;11.85;;
51838;SDS011;37886;53.174;6.368;2022-08-19T01:08:32;15.27;;;12.23;;
51838;SDS011;37886;53.174;6.368;2022-08-19T01:10:59;18.83;;;12.40;;
51838;SDS011;37886;53.174;6.368;2022-08-19T01:13:27;14.68;;;12.23;;
51838;SDS011;37886;53.174;6.368;2022-08-19T01:15:57;16.67;;;12.68;;
51838;SDS011;37886;53.174;6.368;2022-08-19T01:18:29;22.20;;;13.07;;
51838;SDS011;37886;53.174;6.368;2022-08-19T01:20:58;15.93;;;12.00;;
51838;SDS011;37886;53.174;6.368;2022-08-19T01:23:29;15.35;;;12.00;;
51838;SDS011;37886;53.174;6.368;2022-08-19T01:26:09;17.35;;;11.60;;
51838;SDS011;37886;53.174;6.368;2022-08-19T01:28:47;14.68;;;11.13;;
51838;SDS011;37886;53.174;6.368;2022-08-19T01:31:17;13.80;;;12.02;;
51838;SDS011;37886;53.174;6.368;2022-08-19T01:36:14;15.40;;;12.95;;
51838;SDS011;37886;53.174;6.368;2022-08-19T01:38:46;17.20;;;12.98;;
51838;SDS011;37886;53.174;6.368;2022-08-19T01:41:13;16.02;;;13.32;;
51838;SDS011;37886;53.174;6.368;2022-08-19T01:43:39;14.68;;;12.38;;
51838;SDS011;37886;53.174;6.368;2022-08-19T01:46:06;21.25;;;15.05;;
51838;SDS011;37886;53.174;6.368;2022-08-19T01:48:41;16.88;;;13.52;;
51838;SDS011;37886;53.174;6.368;2022-08-19T01:51:08;16.08;;;12.52;;
51838;SDS011;37886;53.174;6.368;2022-08-19T01:53:35;19.65;;;13.25;;
51838;SDS011;37886;53.174;6.368;2022-08-19T01:56:02;20.25;;;14.52;;
51838;SDS011;37886;53.174;6.368;2022-08-19T01:58:34;18.90;;;14.90;;
51838;SDS011;37886;53.174;6.368;2022-08-19T02:01:06;18.55;;;13.52;;
51838;SDS011;37886;53.174;6.368;2022-08-19T02:03:33;17.17;;;13.32;;
51838;SDS011;37886;53.174;6.368;2022-08-19T02:06:00;18.45;;;13.57;;
51838;SDS011;37886;53.174;6.368;2022-08-19T02:08:28;17.08;;;13.82;;
51838;SDS011;37886;53.174;6.368;2022-08-19T02:10:55;20.90;;;15.02;;
51838;SDS011;37886;53.174;6.368;2022-08-19T02:13:21;23.05;;;15.32;;
51838;SDS011;37886;53.174;6.368;2022-08-19T02:15:48;24.42;;;15.23;;
51838;SDS011;37886;53.174;6.368;2022-08-19T02:18:14;27.13;;;17.27;;
51838;SDS011;37886;53.174;6.368;2022-08-19T02:20:40;25.08;;;16.60;;
51838;SDS011;37886;53.174;6.368;2022-08-19T02:23:07;28.92;;;17.02;;
51838;SDS011;37886;53.174;6.368;2022-08-19T02:25:33;21.48;;;15.63;;
51838;SDS011;37886;53.174;6.368;2022-08-19T02:27:58;25.58;;;16.40;;
51838;SDS011;37886;53.174;6.368;2022-08-19T02:30:24;21.17;;;15.35;;
51838;SDS011;37886;53.174;6.368;2022-08-19T02:32:51;21.48;;;16.63;;
51838;SDS011;37886;53.174;6.368;2022-08-19T02:35:17;24.45;;;17.08;;
51838;SDS011;37886;53.174;6.368;2022-08-19T02:37:43;27.25;;;19.13;;
51838;SDS011;37886;53.174;6.368;2022-08-19T02:40:28;25.50;;;17.67;;
51838;SDS011;37886;53.174;6.368;2022-08-19T02:45:24;31.13;;;20.00;;
51838;SDS011;37886;53.174;6.368;2022-08-19T02:47:50;26.38;;;17.70;;
51838;SDS011;37886;53.174;6.368;2022-08-19T02:50:15;28.92;;;20.55;;
51838;SDS011;37886;53.174;6.368;2022-08-19T02:52:41;31.63;;;19.33;;
51838;SDS011;37886;53.174;6.368;2022-08-19T02:55:07;27.02;;;19.45;;
51838;SDS011;37886;53.174;6.368;2022-08-19T02:57:33;28.95;;;18.95;;
51838;SDS011;37886;53.174;6.368;2022-08-19T02:59:59;27.13;;;18.38;;
51838;SDS011;37886;53.174;6.368;2022-08-19T03:02:26;30.33;;;19.70;;
51838;SDS011;37886;53.174;6.368;2022-08-19T03:04:52;29.92;;;20.23;;
51838;SDS011;37886;53.174;6.368;2022-08-19T03:07:18;33.78;;;20.80;;
51838;SDS011;37886;53.174;6.368;2022-08-19T03:09:43;26.17;;;18.35;;
51838;SDS011;37886;53.174;6.368;2022-08-19T03:12:09;33.00;;;20.95;;
51838;SDS011;37886;53.174;6.368;2022-08-19T03:14:36;32.42;;;19.77;;
51838;SDS011;37886;53.174;6.368;2022-08-19T03:17:02;28.40;;;17.67;;
51838;SDS011;37886;53.174;6.368;2022-08-19T03:19:29;26.73;;;19.15;;
51838;SDS011;37886;53.174;6.368;2022-08-19T03:21:56;27.00;;;19.23;;
51838;SDS011;37886;53.174;6.368;2022-08-19T03:24:22;25.67;;;18.38;;
51838;SDS011;37886;53.174;6.368;2022-08-19T03:26:49;28.45;;;17.73;;
51838;SDS011;37886;53.174;6.368;2022-08-19T03:29:17;26.48;;;18.70;;
51838;SDS011;37886;53.174;6.368;2022-08-19T03:31:44;21.88;;;16.30;;
51838;SDS011;37886;53.174;6.368;2022-08-19T03:34:11;22.98;;;16.52;;
51838;SDS011;37886;53.174;6.368;2022-08-19T03:36:42;24.40;;;15.63;;
51838;SDS011;37886;53.174;6.368;2022-08-19T03:39:09;22.77;;;16.38;;
51838;SDS011;37886;53.174;6.368;2022-08-19T03:41:39;28.48;;;17.90;;
51838;SDS011;37886;53.174;6.368;2022-08-19T03:44:08;27.30;;;17.85;;
51838;SDS011;37886;53.174;6.368;2022-08-19T03:46:35;26.83;;;18.08;;
51838;SDS011;37886;53.174;6.368;2022-08-19T03:49:02;23.60;;;16.48;;
51838;SDS011;37886;53.174;6.368;2022-08-19T03:51:37;27.90;;;16.70;;
51838;SDS011;37886;53.174;6.368;2022-08-19T03:54:07;22.63;;;17.02;;
51838;SDS011;37886;53.174;6.368;2022-08-19T03:56:35;21.95;;;16.10;;
51838;SDS011;37886;53.174;6.368;2022-08-19T03:59:05;27.55;;;17.17;;
51838;SDS011;37886;53.174;6.368;2022-08-19T04:01:34;27.77;;;17.35;;
51838;SDS011;37886;53.174;6.368;2022-08-19T04:04:00;28.33;;;18.85;;
51838;SDS011;37886;53.174;6.368;2022-08-19T04:06:27;25.13;;;17.23;;
51838;SDS011;37886;53.174;6.368;2022-08-19T04:08:55;35.13;;;19.25;;
51838;SDS011;37886;53.174;6.368;2022-08-19T04:11:27;28.52;;;20.15;;
51838;SDS011;37886;53.174;6.368;2022-08-19T04:13:55;28.88;;;18.27;;
51838;SDS011;37886;53.174;6.368;2022-08-19T04:16:25;28.73;;;17.30;;
51838;SDS011;37886;53.174;6.368;2022-08-19T04:18:55;25.40;;;16.83;;
51838;SDS011;37886;53.174;6.368;2022-08-19T04:21:23;32.55;;;18.48;;
51838;SDS011;37886;53.174;6.368;2022-08-19T04:23:50;26.10;;;18.05;;
51838;SDS011;37886;53.174;6.368;2022-08-19T04:26:20;27.10;;;18.10;;
51838;SDS011;37886;53.174;6.368;2022-08-19T04:28:48;25.92;;;18.05;;
51838;SDS011;37886;53.174;6.368;2022-08-19T04:31:15;27.83;;;18.55;;
51838;SDS011;37886;53.174;6.368;2022-08-19T04:33:51;26.23;;;18.42;;
51838;SDS011;37886;53.174;6.368;2022-08-19T04:36:20;29.98;;;17.88;;
51838;SDS011;37886;53.174;6.368;2022-08-19T04:38:47;28.05;;;19.00;;
51838;SDS011;37886;53.174;6.368;2022-08-19T04:41:14;34.92;;;19.83;;
51838;SDS011;37886;53.174;6.368;2022-08-19T04:43:59;31.77;;;19.48;;
51838;SDS011;37886;53.174;6.368;2022-08-19T04:46:27;33.47;;;20.60;;
51838;SDS011;37886;53.174;6.368;2022-08-19T04:48:56;37.17;;;21.52;;
51838;SDS011;37886;53.174;6.368;2022-08-19T04:51:22;26.05;;;17.95;;
51838;SDS011;37886;53.174;6.368;2022-08-19T04:53:47;35.38;;;21.58;;
51838;SDS011;37886;53.174;6.368;2022-08-19T04:56:14;30.45;;;19.88;;
51838;SDS011;37886;53.174;6.368;2022-08-19T04:58:43;39.03;;;20.73;;
51838;SDS011;37886;53.174;6.368;2022-08-19T05:01:14;35.92;;;19.40;;
51838;SDS011;37886;53.174;6.368;2022-08-19T05:03:43;37.20;;;20.45;;
51838;SDS011;37886;53.174;6.368;2022-08-19T05:06:11;31.77;;;20.40;;
51838;SDS011;37886;53.174;6.368;2022-08-19T05:08:39;36.78;;;20.15;;
51838;SDS011;37886;53.174;6.368;2022-08-19T05:11:12;38.03;;;21.83;;
51838;SDS011;37886;53.174;6.368;2022-08-19T05:13:38;35.92;;;21.38;;
51838;SDS011;37886;53.174;6.368;2022-08-19T05:16:04;33.33;;;21.73;;
51838;SDS011;37886;53.174;6.368;2022-08-19T05:18:30;35.63;;;20.63;;
51838;SDS011;37886;53.174;6.368;2022-08-19T05:21:16;42.28;;;22.58;;
51838;SDS011;37886;53.174;6.368;2022-08-19T05:24:03;38.38;;;22.30;;
51838;SDS011;37886;53.174;6.368;2022-08-19T05:29:00;35.85;;;21.63;;
51838;SDS011;37886;53.174;6.368;2022-08-19T05:31:25;39.63;;;22.83;;
51838;SDS011;37886;53.174;6.368;2022-08-19T05:33:51;38.30;;;22.15;;
51838;SDS011;37886;53.174;6.368;2022-08-19T05:36:17;42.05;;;24.30;;
51838;SDS011;37886;53.174;6.368;2022-08-19T05:38:45;42.85;;;22.05;;
51838;SDS011;37886;53.174;6.368;2022-08-19T05:41:13;35.17;;;20.73;;
51838;SDS011;37886;53.174;6.368;2022-08-19T05:43:40;38.72;;;22.90;;
51838;SDS011;37886;53.174;6.368;2022-08-19T05:46:06;37.08;;;22.42;;
51838;SDS011;37886;53.174;6.368;2022-08-19T05:48:34;40.25;;;21.85;;
51838;SDS011;37886;53.174;6.368;2022-08-19T05:51:06;38.60;;;22.08;;
51838;SDS011;37886;53.174;6.368;2022-08-19T05:53:33;38.55;;;23.35;;
51838;SDS011;37886;53.174;6.368;2022-08-19T05:56:06;40.15;;;23.13;;
51838;SDS011;37886;53.174;6.368;2022-08-19T05:58:34;39.17;;;23.00;;
51838;SDS011;37886;53.174;6.368;2022-08-19T06:01:01;36.00;;;22.45;;
51838;SDS011;37886;53.174;6.368;2022-08-19T06:03:31;35.90;;;21.48;;
51838;SDS011;37886;53.174;6.368;2022-08-19T06:05:58;29.23;;;20.52;;
51838;SDS011;37886;53.174;6.368;2022-08-19T06:08:25;30.13;;;19.42;;
51838;SDS011;37886;53.174;6.368;2022-08-19T06:10:51;29.35;;;19.75;;
51838;SDS011;37886;53.174;6.368;2022-08-19T06:13:18;30.08;;;21.70;;
51838;SDS011;37886;53.174;6.368;2022-08-19T06:15:44;26.95;;;20.25;;
51838;SDS011;37886;53.174;6.368;2022-08-19T06:18:12;31.13;;;20.23;;
51838;SDS011;37886;53.174;6.368;2022-08-19T06:20:39;30.30;;;18.70;;
51838;SDS011;37886;53.174;6.368;2022-08-19T06:23:05;27.45;;;18.58;;
51838;SDS011;37886;53.174;6.368;2022-08-19T06:25:31;31.50;;;19.90;;
51838;SDS011;37886;53.174;6.368;2022-08-19T06:27:57;27.92;;;18.80;;
51838;SDS011;37886;53.174;6.368;2022-08-19T06:30:23;24.35;;;18.48;;
51838;SDS011;37886;53.174;6.368;2022-08-19T06:32:49;25.15;;;19.02;;
51838;SDS011;37886;53.174;6.368;2022-08-19T06:35:15;28.73;;;19.30;;
51838;SDS011;37886;53.174;6.368;2022-08-19T06:37:41;28.02;;;19.23;;
51838;SDS011;37886;53.174;6.368;2022-08-19T06:40:08;25.95;;;18.48;;
51838;SDS011;37886;53.174;6.368;2022-08-19T06:42:35;25.27;;;17.15;;
51838;SDS011;37886;53.174;6.368;2022-08-19T06:45:03;23.10;;;16.70;;
51838;SDS011;37886;53.174;6.368;2022-08-19T06:47:30;23.30;;;17.17;;
51838;SDS011;37886;53.174;6.368;2022-08-19T06:49:57;22.88;;;16.50;;
51838;SDS011;37886;53.174;6.368;2022-08-19T06:52:33;22.98;;;17.35;;
51838;SDS011;37886;53.174;6.368;2022-08-19T06:55:00;25.30;;;17.75;;
51838;SDS011;37886;53.174;6.368;2022-08-19T06:57:26;21.65;;;17.45;;
51838;SDS011;37886;53.174;6.368;2022-08-19T06:59:56;30.58;;;18.80;;
51838;SDS011;37886;53.174;6.368;2022-08-19T07:02:22;26.10;;;17.88;;
51838;SDS011;37886;53.174;6.368;2022-08-19T07:04:51;25.70;;;17.75;;
51838;SDS011;37886;53.174;6.368;2022-08-19T07:07:17;26.65;;;18.23;;
51838;SDS011;37886;53.174;6.368;2022-08-19T07:09:44;24.77;;;17.42;;
51838;SDS011;37886;53.174;6.368;2022-08-19T07:12:10;20.92;;;17.15;;
51838;SDS011;37886;53.174;6.368;2022-08-19T07:14:39;23.20;;;17.27;;
51838;SDS011;37886;53.174;6.368;2022-08-19T07:17:06;26.80;;;19.65;;
51838;SDS011;37886;53.174;6.368;2022-08-19T07:19:33;23.60;;;16.55;;
51838;SDS011;37886;53.174;6.368;2022-08-19T07:22:01;23.55;;;18.23;;
51838;SDS011;37886;53.174;6.368;2022-08-19T07:24:28;22.83;;;16.50;;
51838;SDS011;37886;53.174;6.368;2022-08-19T07:26:56;23.70;;;18.98;;
51838;SDS011;37886;53.174;6.368;2022-08-19T07:29:25;21.23;;;17.07;;
51838;SDS011;37886;53.174;6.368;2022-08-19T07:31:53;22.27;;;17.73;;
51838;SDS011;37886;53.174;6.368;2022-08-19T07:34:23;19.55;;;16.17;;
51838;SDS011;37886;53.174;6.368;2022-08-19T07:36:51;22.63;;;17.30;;
51838;SDS011;37886;53.174;6.368;2022-08-19T07:39:19;21.58;;;18.20;;
51838;SDS011;37886;53.174;6.368;2022-08-19T07:41:47;22.35;;;16.48;;
51838;SDS011;37886;53.174;6.368;2022-08-19T07:44:15;17.85;;;15.77;;
51838;SDS011;37886;53.174;6.368;2022-08-19T07:46:43;17.20;;;14.98;;
51838;SDS011;37886;53.174;6.368;2022-08-19T07:49:12;20.58;;;15.02;;
51838;SDS011;37886;53.174;6.368;2022-08-19T07:51:45;19.92;;;16.10;;
51838;SDS011;37886;53.174;6.368;2022-08-19T07:54:19;19.05;;;14.13;;
51838;SDS011;37886;53.174;6.368;2022-08-19T07:56:46;21.23;;;15.27;;
51838;SDS011;37886;53.174;6.368;2022-08-19T07:59:12;19.38;;;15.35;;
51838;SDS011;37886;53.174;6.368;2022-08-19T08:01:38;15.00;;;13.40;;
51838;SDS011;37886;53.174;6.368;2022-08-19T08:04:05;17.42;;;14.02;;
51838;SDS011;37886;53.174;6.368;2022-08-19T08:06:52;17.40;;;13.95;;
51838;SDS011;37886;53.174;6.368;2022-08-19T08:09:37;18.52;;;15.80;;
51838;SDS011;37886;53.174;6.368;2022-08-19T08:12:06;17.73;;;13.45;;
51838;SDS011;37886;53.174;6.368;2022-08-19T08:14:43;15.55;;;13.70;;
51838;SDS011;37886;53.174;6.368;2022-08-19T08:17:15;16.42;;;13.90;;
51838;SDS011;37886;53.174;6.368;2022-08-19T08:19:42;22.40;;;13.75;;
51838;SDS011;37886;53.174;6.368;2022-08-19T08:22:09;15.02;;;13.43;;
51838;SDS011;37886;53.174;6.368;2022-08-19T08:25:10;15.00;;;13.40;;
51838;SDS011;37886;53.174;6.368;2022-08-19T08:27:37;16.48;;;13.65;;
51838;SDS011;37886;53.174;6.368;2022-08-19T08:30:10;13.75;;;12.07;;
51838;SDS011;37886;53.174;6.368;2022-08-19T08:32:39;15.13;;;11.50;;
51838;SDS011;37886;53.174;6.368;2022-08-19T08:35:06;13.73;;;12.05;;
51838;SDS011;37886;53.174;6.368;2022-08-19T08:37:35;13.05;;;10.60;;
51838;SDS011;37886;53.174;6.368;2022-08-19T08:40:06;13.50;;;11.38;;
51838;SDS011;37886;53.174;6.368;2022-08-19T08:43:23;13.95;;;12.55;;
51838;SDS011;37886;53.174;6.368;2022-08-19T08:46:06;14.45;;;12.73;;
51838;SDS011;37886;53.174;6.368;2022-08-19T08:48:38;18.25;;;13.95;;
51838;SDS011;37886;53.174;6.368;2022-08-19T08:51:17;13.35;;;11.57;;
51838;SDS011;37886;53.174;6.368;2022-08-19T08:53:58;15.32;;;13.27;;
51838;SDS011;37886;53.174;6.368;2022-08-19T08:56:24;14.63;;;13.18;;
51838;SDS011;37886;53.174;6.368;2022-08-19T08:59:03;14.10;;;12.70;;
51838;SDS011;37886;53.174;6.368;2022-08-19T09:01:33;20.17;;;14.60;;
51838;SDS011;37886;53.174;6.368;2022-08-19T09:03:59;17.73;;;14.07;;
51838;SDS011;37886;53.174;6.368;2022-08-19T09:06:40;17.95;;;13.98;;
51838;SDS011;37886;53.174;6.368;2022-08-19T09:15:07;16.85;;;14.90;;
51838;SDS011;37886;53.174;6.368;2022-08-19T09:17:36;17.38;;;13.80;;
51838;SDS011;37886;53.174;6.368;2022-08-19T09:20:13;16.27;;;13.60;;
51838;SDS011;37886;53.174;6.368;2022-08-19T09:22:40;17.25;;;14.10;;
51838;SDS011;37886;53.174;6.368;2022-08-19T09:25:11;18.13;;;15.30;;
51838;SDS011;37886;53.174;6.368;2022-08-19T09:27:40;12.88;;;11.57;;
51838;SDS011;37886;53.174;6.368;2022-08-19T09:30:07;17.17;;;14.63;;
51838;SDS011;37886;53.174;6.368;2022-08-19T09:32:34;15.18;;;13.00;;
51838;SDS011;37886;53.174;6.368;2022-08-19T09:35:00;15.43;;;11.73;;
51838;SDS011;37886;53.174;6.368;2022-08-19T09:37:26;17.35;;;12.57;;
51838;SDS011;37886;53.174;6.368;2022-08-19T09:39:52;15.23;;;13.63;;
51838;SDS011;37886;53.174;6.368;2022-08-19T09:42:19;16.17;;;13.85;;
51838;SDS011;37886;53.174;6.368;2022-08-19T09:44:45;15.05;;;12.30;;
51838;SDS011;37886;53.174;6.368;2022-08-19T09:47:12;16.13;;;14.40;;
51838;SDS011;37886;53.174;6.368;2022-08-19T09:49:39;16.17;;;14.48;;
51838;SDS011;37886;53.174;6.368;2022-08-19T09:52:06;14.95;;;12.07;;
51838;SDS011;37886;53.174;6.368;2022-08-19T09:54:34;15.73;;;14.13;;
51838;SDS011;37886;53.174;6.368;2022-08-19T09:57:00;14.05;;;12.52;;
51838;SDS011;37886;53.174;6.368;2022-08-19T09:59:26;15.10;;;13.50;;
51838;SDS011;37886;53.174;6.368;2022-08-19T10:01:52;14.73;;;13.23;;
51838;SDS011;37886;53.174;6.368;2022-08-19T10:04:18;17.38;;;15.55;;
51838;SDS011;37886;53.174;6.368;2022-08-19T10:06:46;14.70;;;11.25;;
51838;SDS011;37886;53.174;6.368;2022-08-19T10:09:15;14.48;;;12.98;;
51838;SDS011;37886;53.174;6.368;2022-08-19T10:11:43;16.05;;;14.38;;
51838;SDS011;37886;53.174;6.368;2022-08-19T10:16:38;16.02;;;14.23;;
51838;SDS011;37886;53.174;6.368;2022-08-19T10:19:06;19.10;;;15.38;;
51838;SDS011;37886;53.174;6.368;2022-08-19T10:21:32;19.75;;;17.65;;
51838;SDS011;37886;53.174;6.368;2022-08-19T10:24:00;22.40;;;17.98;;
51838;SDS011;37886;53.174;6.368;2022-08-19T10:26:37;16.97;;;15.27;;
51838;SDS011;37886;53.174;6.368;2022-08-19T10:29:06;17.25;;;14.77;;
51838;SDS011;37886;53.174;6.368;2022-08-19T10:31:33;17.70;;;15.98;;
51838;SDS011;37886;53.174;6.368;2022-08-19T10:34:00;19.55;;;17.50;;
51838;SDS011;37886;53.174;6.368;2022-08-19T10:36:30;20.17;;;18.13;;
51838;SDS011;37886;53.174;6.368;2022-08-19T10:39:01;20.70;;;17.30;;
51838;SDS011;37886;53.174;6.368;2022-08-19T10:41:29;17.92;;;15.70;;
51838;SDS011;37886;53.174;6.368;2022-08-19T10:43:58;18.42;;;16.50;;
51838;SDS011;37886;53.174;6.368;2022-08-19T10:46:26;16.80;;;14.95;;
51838;SDS011;37886;53.174;6.368;2022-08-19T10:48:57;20.92;;;18.65;;
51838;SDS011;37886;53.174;6.368;2022-08-19T10:51:24;15.82;;;14.15;;
51838;SDS011;37886;53.174;6.368;2022-08-19T10:54:09;14.52;;;11.50;;
51838;SDS011;37886;53.174;6.368;2022-08-19T10:56:35;18.10;;;14.85;;
51838;SDS011;37886;53.174;6.368;2022-08-19T10:59:17;16.42;;;14.73;;
51838;SDS011;37886;53.174;6.368;2022-08-19T11:01:44;17.60;;;15.57;;
51838;SDS011;37886;53.174;6.368;2022-08-19T11:04:10;17.40;;;13.65;;
51838;SDS011;37886;53.174;6.368;2022-08-19T11:06:39;20.67;;;14.18;;
51838;SDS011;37886;53.174;6.368;2022-08-19T11:09:06;13.77;;;12.25;;
51838;SDS011;37886;53.174;6.368;2022-08-19T11:11:32;16.65;;;12.98;;
51838;SDS011;37886;53.174;6.368;2022-08-19T11:14:04;13.80;;;11.75;;
51838;SDS011;37886;53.174;6.368;2022-08-19T11:16:31;11.75;;;10.55;;
51838;SDS011;37886;53.174;6.368;2022-08-19T11:18:58;10.55;;;9.40;;
51838;SDS011;37886;53.174;6.368;2022-08-19T11:21:25;12.35;;;11.10;;
51838;SDS011;37886;53.174;6.368;2022-08-19T11:23:54;11.18;;;9.73;;
51838;SDS011;37886;53.174;6.368;2022-08-19T11:26:21;14.13;;;11.40;;
51838;SDS011;37886;53.174;6.368;2022-08-19T11:28:48;14.30;;;12.77;;
51838;SDS011;37886;53.174;6.368;2022-08-19T11:31:21;13.80;;;11.50;;
51838;SDS011;37886;53.174;6.368;2022-08-19T11:33:48;12.10;;;9.07;;
51838;SDS011;37886;53.174;6.368;2022-08-19T11:36:18;12.00;;;10.45;;
51838;SDS011;37886;53.174;6.368;2022-08-19T11:38:47;15.13;;;9.45;;
51838;SDS011;37886;53.174;6.368;2022-08-19T11:41:14;14.60;;;10.32;;
51838;SDS011;37886;53.174;6.368;2022-08-19T11:43:42;16.75;;;11.90;;
51838;SDS011;37886;53.174;6.368;2022-08-19T11:46:09;14.75;;;11.68;;
51838;SDS011;37886;53.174;6.368;2022-08-19T11:48:37;15.65;;;10.73;;
51838;SDS011;37886;53.174;6.368;2022-08-19T11:51:07;13.35;;;10.63;;
51838;SDS011;37886;53.174;6.368;2022-08-19T11:53:36;15.23;;;10.60;;
51838;SDS011;37886;53.174;6.368;2022-08-19T11:56:02;15.48;;;11.10;;
51838;SDS011;37886;53.174;6.368;2022-08-19T11:58:29;11.88;;;8.82;;
51838;SDS011;37886;53.174;6.368;2022-08-19T12:00:55;14.25;;;11.02;;
51838;SDS011;37886;53.174;6.368;2022-08-19T12:03:21;12.88;;;9.25;;
51838;SDS011;37886;53.174;6.368;2022-08-19T12:05:47;12.60;;;10.05;;
51838;SDS011;37886;53.174;6.368;2022-08-19T12:08:15;12.20;;;8.45;;
51838;SDS011;37886;53.174;6.368;2022-08-19T12:10:42;9.27;;;7.85;;
51838;SDS011;37886;53.174;6.368;2022-08-19T12:13:10;10.07;;;8.23;;
51838;SDS011;37886;53.174;6.368;2022-08-19T12:15:43;11.43;;;7.28;;
51838;SDS011;37886;53.174;6.368;2022-08-19T12:18:10;12.85;;;9.77;;
51838;SDS011;37886;53.174;6.368;2022-08-19T12:20:36;10.40;;;9.15;;
51838;SDS011;37886;53.174;6.368;2022-08-19T12:23:05;10.50;;;8.57;;
51838;SDS011;37886;53.174;6.368;2022-08-19T12:25:31;16.15;;;9.77;;
51838;SDS011;37886;53.174;6.368;2022-08-19T12:27:58;13.82;;;9.43;;
51838;SDS011;37886;53.174;6.368;2022-08-19T12:30:24;12.85;;;8.95;;
51838;SDS011;37886;53.174;6.368;2022-08-19T12:32:49;16.15;;;10.20;;
51838;SDS011;37886;53.174;6.368;2022-08-19T12:35:16;13.43;;;10.00;;
51838;SDS011;37886;53.174;6.368;2022-08-19T12:37:45;13.48;;;9.20;;
51838;SDS011;37886;53.174;6.368;2022-08-19T12:40:12;12.48;;;9.70;;
51838;SDS011;37886;53.174;6.368;2022-08-19T12:42:39;14.18;;;10.65;;
51838;SDS011;37886;53.174;6.368;2022-08-19T12:45:09;17.70;;;11.15;;
51838;SDS011;37886;53.174;6.368;2022-08-19T12:47:36;14.27;;;11.98;;
51838;SDS011;37886;53.174;6.368;2022-08-19T12:50:02;17.63;;;12.90;;
51838;SDS011;37886;53.174;6.368;2022-08-19T12:52:29;21.15;;;13.50;;
51838;SDS011;37886;53.174;6.368;2022-08-19T12:54:55;17.67;;;14.18;;
51838;SDS011;37886;53.174;6.368;2022-08-19T12:57:23;18.58;;;14.55;;
51838;SDS011;37886;53.174;6.368;2022-08-19T12:59:53;23.58;;;15.27;;
51838;SDS011;37886;53.174;6.368;2022-08-19T13:02:20;21.48;;;13.68;;
51838;SDS011;37886;53.174;6.368;2022-08-19T13:04:46;18.55;;;11.32;;
51838;SDS011;37886;53.174;6.368;2022-08-19T13:07:14;12.90;;;9.05;;
51838;SDS011;37886;53.174;6.368;2022-08-19T13:09:39;10.00;;;6.95;;
51838;SDS011;37886;53.174;6.368;2022-08-19T13:12:07;10.13;;;6.95;;
51838;SDS011;37886;53.174;6.368;2022-08-19T13:17:05;11.10;;;6.57;;
51838;SDS011;37886;53.174;6.368;2022-08-19T13:19:31;16.05;;;8.45;;
51838;SDS011;37886;53.174;6.368;2022-08-19T13:21:57;10.93;;;8.63;;
51838;SDS011;37886;53.174;6.368;2022-08-19T13:24:23;12.88;;;9.65;;
51838;SDS011;37886;53.174;6.368;2022-08-19T13:26:49;13.35;;;9.88;;
51838;SDS011;37886;53.174;6.368;2022-08-19T13:29:15;11.45;;;9.43;;
51838;SDS011;37886;53.174;6.368;2022-08-19T13:31:59;14.15;;;10.75;;
51838;SDS011;37886;53.174;6.368;2022-08-19T13:34:44;13.63;;;11.38;;
51838;SDS011;37886;53.174;6.368;2022-08-19T13:37:11;15.65;;;11.45;;
51838;SDS011;37886;53.174;6.368;2022-08-19T13:39:37;15.32;;;11.57;;
51838;SDS011;37886;53.174;6.368;2022-08-19T13:42:03;19.65;;;14.55;;
51838;SDS011;37886;53.174;6.368;2022-08-19T13:44:29;19.05;;;14.88;;
51838;SDS011;37886;53.174;6.368;2022-08-19T13:47:04;19.77;;;15.30;;
51838;SDS011;37886;53.174;6.368;2022-08-19T13:49:32;20.98;;;14.27;;
51838;SDS011;37886;53.174;6.368;2022-08-19T13:51:59;20.05;;;14.85;;
51838;SDS011;37886;53.174;6.368;2022-08-19T13:54:25;22.13;;;14.80;;
51838;SDS011;37886;53.174;6.368;2022-08-19T13:56:52;28.00;;;16.58;;
51838;SDS011;37886;53.174;6.368;2022-08-19T13:59:17;23.05;;;16.13;;
51838;SDS011;37886;53.174;6.368;2022-08-19T14:01:44;20.02;;;13.95;;
51838;SDS011;37886;53.174;6.368;2022-08-19T14:04:10;22.73;;;16.92;;
51838;SDS011;37886;53.174;6.368;2022-08-19T14:06:35;21.42;;;15.13;;
51838;SDS011;37886;53.174;6.368;2022-08-19T14:09:01;18.00;;;13.18;;
51838;SDS011;37886;53.174;6.368;2022-08-19T14:11:27;17.15;;;12.18;;
51838;SDS011;37886;53.174;6.368;2022-08-19T14:13:54;14.60;;;10.35;;
51838;SDS011;37886;53.174;6.368;2022-08-19T14:16:19;14.20;;;9.55;;
51838;SDS011;37886;53.174;6.368;2022-08-19T14:18:46;15.60;;;11.25;;
51838;SDS011;37886;53.174;6.368;2022-08-19T14:21:16;14.27;;;10.65;;
51838;SDS011;37886;53.174;6.368;2022-08-19T14:23:45;16.38;;;12.95;;
51838;SDS011;37886;53.174;6.368;2022-08-19T14:26:12;19.10;;;14.55;;
51838;SDS011;37886;53.174;6.368;2022-08-19T14:28:39;24.67;;;14.30;;
51838;SDS011;37886;53.174;6.368;2022-08-19T14:31:07;25.17;;;17.23;;
51838;SDS011;37886;53.174;6.368;2022-08-19T14:33:43;23.52;;;15.82;;
51838;SDS011;37886;53.174;6.368;2022-08-19T14:36:09;25.02;;;16.33;;
51838;SDS011;37886;53.174;6.368;2022-08-19T14:38:35;25.75;;;16.50;;
51838;SDS011;37886;53.174;6.368;2022-08-19T14:41:12;30.30;;;17.92;;
51838;SDS011;37886;53.174;6.368;2022-08-19T14:43:41;18.53;;;10.97;;
51838;SDS011;37886;53.174;6.368;2022-08-19T14:46:07;11.15;;;7.40;;
51838;SDS011;37886;53.174;6.368;2022-08-19T14:48:35;11.52;;;7.18;;
51838;SDS011;37886;53.174;6.368;2022-08-19T14:51:03;10.13;;;7.05;;